Pioche, Nevada Weather observations

Data are for observation ending at time listed.
 Day   Time    Ave.   Ave.  Ave.  Vector   Max.   Stn.    Total    Solar   Ave.  
  of    of     Air    Rel.  Wind   Wind    Wind   Baro.  Precip.   Rad.    Soil  
Year   Day     Temp.  Hum.  Speed  Dir.    Gust   Pres.                    Temp. 
2015   (PST)    F      %     mph   deg.    mph     mb.     in.     W/m2     F   
------------------------------------------------------------------------------
  63    2:20   21.3    64    5.5   271     10.4   817.7    0.00       0    36.5
  63    2:30   21.6    63    5.4   272      9.6   817.7    0.00       0    36.5
  63    2:40   21.8    62    5.4   272      8.6   817.7    0.00       0    36.5
  63    2:50   22.0    61    5.2   270      8.4   817.7    0.00       0    36.4
  63    3:00   21.6    61    4.5   288      8.0   817.7    0.00       0    36.4
  63    3:10   18.7    68    3.5   300      5.6   817.7    0.00       0    36.4
  63    3:20   18.0    71    3.3   286      4.8   817.7    0.00       0    36.4
  63    3:30   17.8    71    3.6   277      5.7   817.8    0.00       0    36.4
  63    3:40   19.2    68    3.5   275      5.7   817.8    0.00       0    36.4
  63    3:50   18.9    67    2.5   289      4.3   817.7    0.00       0    36.3
  63    4:00   18.4    69    2.6   270      5.3   817.7    0.00       0    36.3
  63    4:10   19.5    67    3.1   261      5.2   817.8    0.00       0    36.3
  63    4:20   20.3    64    3.5   278      5.7   817.9    0.00       0    36.3
  63    4:30   18.7    65    2.0   320      3.6   818.0    0.00       0    36.3
  63    4:40   17.5    69    2.8   270      5.0   818.1    0.00       0    36.2
  63    4:50   19.8    64    3.8   274      6.9   818.2    0.00       0    36.2
  63    5:00   19.5    63    2.7   298      5.0   818.4    0.00       0    36.2
  63    5:10   16.6    70    1.9   300      3.5   818.5    0.00       0    36.2
  63    5:20   17.7    69    3.7   272      6.5   818.6    0.00       0    36.2
  63    5:30   19.5    65    4.4   269      7.2   818.6    0.00       0    36.1
  63    5:40   19.7    65    4.9   276      8.8   818.7    0.00       0    36.1
  63    5:50   19.8    64    4.6   278      7.1   818.8    0.00       0    36.1
  63    6:00   19.9    64    3.8   272      6.2   819.0    0.00       0    36.1
  63    6:10   19.6    65    2.9   267      4.8   819.1    0.00       7    36.1
  63    6:20   20.2    64    3.3   267      5.3   819.2    0.00      17    36.1
  63    6:30   21.4    61    4.1   276      6.4   819.4    0.00      40    36.0
  63    6:40   21.8    60    4.0   271      6.4   819.5    0.00      74    36.1
  63    6:50   22.4    59    4.7   278      8.5   819.7    0.00     117    36.1
  63    7:00   22.7    58    5.8   283      9.1   819.8    0.00     157    36.1
  63    7:10   23.4    57    5.3   283      7.7   820.0    0.00     194    35.9
  63    7:20   23.9    56    6.4   288      9.9   820.2    0.00     231    36.1
  63    7:30   24.1    58    6.5   291      9.5   820.3    0.00     269    36.2
  63    7:40   24.8    58    5.1   297      7.3   820.5    0.00     306    36.1
  63    7:50   25.8    58    5.2   306      8.2   820.6    0.00     345    36.1
  63    8:00   26.2    57    6.7   309     10.3   820.7    0.00     383    36.1
  63    8:10   26.7    56    6.8   307     10.2   820.9    0.00     419    36.1
  63    8:20   27.4    53    7.3   304     10.0   821.0    0.00     455    36.1
  63    8:30   28.1    52    6.4   298     11.0   821.1    0.00     490    36.0
  63    8:40   29.0    51    6.0   298      8.6   821.2    0.00     524    36.0
  63    8:50   29.9    48    6.0   308      9.6   821.2    0.00     557    36.1
  63    9:00   30.8    44    5.7   308      8.4   821.3    0.00     590    36.0
  63    9:10   31.7    41    5.0   301      7.2   821.3    0.00     620    36.0
  63    9:20   32.5    39    5.0   294      7.2   821.3    0.00     648    36.1
  63    9:30   33.1    38    4.6   295      6.9   821.3    0.00     675    36.0
  63    9:40   33.8    37    5.0   298      7.6   821.4    0.00     701    36.0
  63    9:50   34.2    38    4.9   299      7.7   821.5    0.00     726    36.1
  63   10:00   34.6    35    4.8   302      7.3   821.6    0.00     748    36.1
  63   10:10   35.2    36    4.1   311      7.4   821.6    0.00     768    36.0
  63   10:20   35.4    35    4.3   323      8.1   821.6    0.00     787    36.0
  63   10:30   36.2    34    4.4   314      8.1   821.7    0.00     803    36.0
  63   10:40   37.1    32    2.4   331      6.2   821.7    0.00     818    36.0
  63   10:50   37.5    34    3.9   306      7.2   821.7    0.00     830    36.0
  63   11:00   37.6    34    4.2   309      9.0   821.7    0.00     841    36.0
  63   11:10   36.9    36    4.8   323      8.5   821.8    0.00     849    36.0
  63   11:20   37.3    35    3.8   326      7.8   821.8    0.00     858    36.0
  63   11:30   39.3    33    2.3   320      4.6   821.8    0.00     864    36.0
  63   11:40   38.4    35    5.1   326      9.3   821.9    0.00     864    35.9
  63   11:50   39.7    33    2.0   341      6.3   822.0    0.00     865    35.9
  63   12:00   40.5    33    1.6   350      4.9   822.0    0.00     863    35.9
  63   12:10   41.1    32    2.4    90      5.8   822.0    0.00     861    36.0
  63   12:20   41.1    32    1.7   164      3.9   822.0    0.00     860    35.9
  63   12:30   42.6    32    1.6   192      3.7   821.9    0.00     855    35.9
  63   12:40   44.0    30    0.9   321      2.8   821.9    0.00     846    35.9
  63   12:50   43.1    31    1.6    44      5.4   821.8    0.00     836    35.9
  63   13:00   42.7    32    2.1   296      5.6   821.7    0.00     825    35.9
  63   13:10   41.0    34    3.9    90      6.1   821.7    0.00     808    35.9
  63   13:20   40.9    34    3.3   100      6.5   821.6    0.00     792    35.9
  63   13:30   40.7    34    4.2    99      7.6   821.6    0.00     773    35.8
  63   13:40   41.0    35    3.6   109      7.0   821.6    0.00     755    35.9
  63   13:50   41.5    34    3.0    90      4.7   821.5    0.00     732    35.9
  63   14:00   41.8    34    3.4   100      7.5   821.6    0.00     710    35.9
  63   14:10   41.9    34    3.7    97      6.4   821.6    0.00     685    35.9
  63   14:20   42.0    34    4.3   106      7.2   821.7    0.00     658    35.8
  63   14:30   42.2    33    3.3    85      6.1   821.7    0.00     630    35.8
  63   14:40   43.6    31    2.1    97      4.7   821.8    0.00     602    35.8
  63   14:50   43.0    32    2.5   134      4.4   821.9    0.00     572    35.8
  63   15:00   43.1    33    2.4   123      4.3   821.9    0.00     539    35.8
  63   15:10   43.2    31    2.1   160      4.2   822.1    0.00     506    35.8
  63   15:20   43.6    31    1.3   311      3.1   822.1    0.00     474    35.8
  63   15:30   44.5    30    1.3   298      2.4   822.1    0.00     439    35.9
  63   15:40   44.6    30    1.3   326      3.1   822.2    0.00     402    35.8
  63   15:50   43.6    32    2.0   298      3.7   822.3    0.00     366    35.9
  63   16:00   43.2    32    1.8   293      3.0   822.2    0.00     333    35.9
  63   16:10   43.1    32    1.9   295      4.6   822.3    0.00     296    35.9
  63   16:20   44.0    31    0.5   280      1.8   822.4    0.00     258    36.0
  63   16:30   44.6    30    0.2   292      2.3   822.5    0.00     221    36.0
  63   16:40   43.9    35    1.3   237      2.7   822.6    0.00     186    36.0
  63   16:50   41.8    42    2.2   162      4.0   822.7    0.00     117    36.1
  63   17:00   38.0    49    2.2   158      4.7   822.7    0.00      21    36.2
  63   17:10   36.2    53    3.6   155      4.5   822.8    0.00      17    36.2
  63   17:20   35.6    54    4.6   154      6.3   822.9    0.00      13    36.3
  63   17:30   34.8    56    5.0   152      6.3   823.0    0.00      10    36.3
  63   17:40   34.4    56    3.6   149      5.0   823.2    0.00       5    36.3
  63   17:50   33.9    57    4.7   146      6.1   823.2    0.00       0    36.4
  63   18:00   33.5    57    1.9   176      4.5   823.4    0.00       0    36.4
  63   18:10   33.5    57    3.7   123      7.4   823.5    0.00       0    36.5
  63   18:20   35.3    54    5.9   107      8.5   823.6    0.00       0    36.4
  63   18:30   34.7    55    4.9   116      6.7   823.7    0.00       0    36.4
  63   18:40   34.2    57    6.2   132      8.9   823.9    0.00       0    36.5
  63   18:50   33.2    60    5.3   136      7.7   824.1    0.00       0    36.6
  63   19:00   33.1    62    5.4   124      8.4   824.2    0.00       0    36.6
  63   19:10   33.0    62    6.1   134      8.0   824.3    0.00       0    36.6
  63   19:20   32.2    64    6.0   144      8.0   824.4    0.00       0    36.6
  63   19:30   32.2    64    5.4   145      6.7   824.5    0.00       0    36.6
  63   19:40   32.2    63    4.6   135      6.7   824.6    0.00       0    36.7
  63   19:50   31.9    61    4.1   134      6.0   824.6    0.00       0    36.7
  63   20:00   31.8    60    4.5   135      5.8   824.7    0.00       0    36.7
  63   20:10   32.1    58    4.4   131      7.9   824.8    0.00       0    36.7
  63   20:20   31.8    58    3.1   120      5.1   825.0    0.00       0    36.6
  63   20:30   31.3    60    3.2   134      4.1   825.1    0.00       0    36.7
  63   20:40   30.9    61    3.2   134      4.7   825.2    0.00       0    36.7
  63   20:50   30.6    61    3.6   133      4.7   825.3    0.00       0    36.7
  63   21:00   30.5    61    2.9   121      4.5   825.4    0.00       0    36.7
  63   21:10   30.2    61    3.3   141      4.2   825.5    0.00       0    36.7
  63   21:20   29.8    62    3.9   134      5.8   825.6    0.00       0    36.7
  63   21:30   29.8    62    3.8   134      4.7   825.7    0.00       0    36.7
  63   21:40   29.9    62    4.7   114      7.2   825.8    0.00       0    36.6
  63   21:50   30.9    59    5.2   108      7.7   825.8    0.00       0    36.6
  63   22:00   30.8    59    6.4   109      9.9   825.9    0.00       0    36.6
  63   22:10   30.7    59    6.1   105      8.3   825.9    0.00       0    36.6
  63   22:20   30.6    60    4.6   106      7.2   825.9    0.00       0    36.6
  63   22:30   30.2    60    4.3   103      6.8   826.0    0.00       0    36.6
  63   22:40   30.1    61    4.8   108      8.0   825.9    0.00       0    36.6
  63   22:50   30.0    61    5.0   107      7.5   826.0    0.00       0    36.6
  63   23:00   30.0    60    4.4   109      7.0   826.0    0.00       0    36.6
  63   23:10   29.6    60    3.5   102      5.6   826.0    0.00       0    36.6
  63   23:20   28.0    63    2.1   141      3.4   826.0    0.00       0    36.5
  63   23:30   26.6    67    2.9   141      4.2   826.0    0.00       0    36.5
  63   23:40   27.1    66    2.8   105      4.2   826.0    0.00       0    36.5
  63   23:50   27.5    65    2.8   122      4.7   826.0    0.00       0    36.5
  64    0:00   27.8    65    3.6   116      4.8   826.0    0.00       0    36.5
  64    0:10   27.9    64    3.6   127      5.3   826.1    0.00       0    36.5
  64    0:20   28.4    61    3.7   101      5.9   826.2    0.00       0    36.4
  64    0:30   27.6    62    3.5   112      6.5   826.2    0.00       0    36.4
  64    0:40   28.1    61    2.7   103      4.8   826.3    0.00       0    36.4
  64    0:50   26.5    64    1.6   149      2.9   826.4    0.00       0    36.4
  64    1:00   24.8    70    0.2   161      2.0   826.5    0.00       0    36.4
  64    1:10   24.3    71    1.2   131      2.0   826.5    0.00       0    36.4
  64    1:20   23.5    73    0.5   157      1.6   826.5    0.00       0    36.3
  64    1:30   22.5    75    1.4   220      2.1   826.6    0.00       0    36.3
  64    1:40   22.4    75    1.1   182      2.0   826.6    0.00       0    36.3
  64    1:50   21.7    77    2.0   169      3.9   826.6    0.00       0    36.2
  64    2:00   22.2    77    3.7   148      4.6   826.5    0.00       0    36.2
  64    2:10   22.1    76    4.0   151      4.7   826.5    0.00       0    36.2

Return to Pioche, Nevada graphs page.


Western Regional Climate Center,wrcc@dri.edu